Aulander, North Carolina
Current Conditions -  °F | °C
As of 10:15 PM on Monday 26 Jan 2015 (Local Time) from KASJ Reporting Station
Overcast Overcast  
Wind Chill: 33°   Ceiling: 800
Heat Index: 38°   Visibility: 10mi
Dew Point: 35°   Wind: 7mph
Humidity: 89%   Direction: 350°N
Pressure: 29.66"   Gusts: NA
Location:  36.23°N, 77.11°W
Report Text: KASJ 270315Z AUTO 35006KT 10SM OVC008 03/02 A2966 RMK AO2 T00340017
Loading
Personal Weather Stations






























Interactive Weather Map New forecast layout! Learn more

10-Day Weather Forecast

Advertisements
Track Severe Weather on mobile